sensor_id;sensor_type;location;lat;lon;timestamp;P1;durP1;ratioP1;P2;durP2;ratioP2
68583;SDS011;55557;49.220;11.150;2022-08-20T00:00:12;13.70;;;10.13;;
68583;SDS011;55557;49.220;11.150;2022-08-20T00:02:40;19.07;;;10.10;;
68583;SDS011;55557;49.220;11.150;2022-08-20T00:05:06;15.57;;;10.73;;
68583;SDS011;55557;49.220;11.150;2022-08-20T00:07:32;13.90;;;10.10;;
68583;SDS011;55557;49.220;11.150;2022-08-20T00:09:58;15.70;;;11.87;;
68583;SDS011;55557;49.220;11.150;2022-08-20T00:12:24;13.80;;;10.30;;
68583;SDS011;55557;49.220;11.150;2022-08-20T00:14:51;14.30;;;10.33;;
68583;SDS011;55557;49.220;11.150;2022-08-20T00:17:17;15.87;;;11.10;;
68583;SDS011;55557;49.220;11.150;2022-08-20T00:19:43;17.20;;;10.90;;
68583;SDS011;55557;49.220;11.150;2022-08-20T00:22:09;15.30;;;10.97;;
68583;SDS011;55557;49.220;11.150;2022-08-20T00:24:35;17.53;;;10.83;;
68583;SDS011;55557;49.220;11.150;2022-08-20T00:27:01;20.13;;;10.87;;
68583;SDS011;55557;49.220;11.150;2022-08-20T00:29:27;19.80;;;10.80;;
68583;SDS011;55557;49.220;11.150;2022-08-20T00:31:53;16.87;;;10.93;;
68583;SDS011;55557;49.220;11.150;2022-08-20T00:34:19;18.50;;;11.47;;
68583;SDS011;55557;49.220;11.150;2022-08-20T00:36:45;19.77;;;10.90;;
68583;SDS011;55557;49.220;11.150;2022-08-20T00:39:11;16.40;;;9.90;;
68583;SDS011;55557;49.220;11.150;2022-08-20T00:41:37;14.27;;;10.40;;
68583;SDS011;55557;49.220;11.150;2022-08-20T00:44:12;18.03;;;11.00;;
68583;SDS011;55557;49.220;11.150;2022-08-20T00:46:38;13.70;;;10.20;;
68583;SDS011;55557;49.220;11.150;2022-08-20T00:49:06;16.17;;;10.97;;
68583;SDS011;55557;49.220;11.150;2022-08-20T00:51:38;15.00;;;10.70;;
68583;SDS011;55557;49.220;11.150;2022-08-20T00:54:49;13.50;;;10.10;;
68583;SDS011;55557;49.220;11.150;2022-08-20T00:57:01;14.93;;;10.67;;
68583;SDS011;55557;49.220;11.150;2022-08-20T00:59:29;12.87;;;9.70;;
68583;SDS011;55557;49.220;11.150;2022-08-20T01:01:56;16.60;;;10.73;;
68583;SDS011;55557;49.220;11.150;2022-08-20T01:04:26;15.03;;;10.03;;
68583;SDS011;55557;49.220;11.150;2022-08-20T01:06:53;16.83;;;11.13;;
68583;SDS011;55557;49.220;11.150;2022-08-20T01:09:19;16.73;;;11.20;;
68583;SDS011;55557;49.220;11.150;2022-08-20T01:11:45;16.43;;;11.03;;
68583;SDS011;55557;49.220;11.150;2022-08-20T01:14:12;15.80;;;11.53;;
68583;SDS011;55557;49.220;11.150;2022-08-20T01:16:59;19.13;;;10.83;;
68583;SDS011;55557;49.220;11.150;2022-08-20T01:19:31;14.10;;;10.83;;
68583;SDS011;55557;49.220;11.150;2022-08-20T01:21:58;16.17;;;11.00;;
68583;SDS011;55557;49.220;11.150;2022-08-20T01:24:31;15.13;;;10.77;;
68583;SDS011;55557;49.220;11.150;2022-08-20T01:27:00;15.47;;;10.60;;
68583;SDS011;55557;49.220;11.150;2022-08-20T01:29:28;13.87;;;10.73;;
68583;SDS011;55557;49.220;11.150;2022-08-20T01:31:59;18.17;;;11.60;;
68583;SDS011;55557;49.220;11.150;2022-08-20T01:34:26;16.90;;;10.93;;
68583;SDS011;55557;49.220;11.150;2022-08-20T01:36:53;17.17;;;10.83;;
68583;SDS011;55557;49.220;11.150;2022-08-20T01:39:21;13.97;;;10.10;;
68583;SDS011;55557;49.220;11.150;2022-08-20T01:44:17;16.07;;;10.27;;
68583;SDS011;55557;49.220;11.150;2022-08-20T01:46:45;15.23;;;10.40;;
68583;SDS011;55557;49.220;11.150;2022-08-20T01:49:19;16.73;;;10.10;;
68583;SDS011;55557;49.220;11.150;2022-08-20T01:51:46;16.63;;;11.87;;
68583;SDS011;55557;49.220;11.150;2022-08-20T01:54:13;18.27;;;11.03;;
68583;SDS011;55557;49.220;11.150;2022-08-20T01:59:20;14.27;;;10.37;;
68583;SDS011;55557;49.220;11.150;2022-08-20T02:01:46;16.93;;;11.60;;
68583;SDS011;55557;49.220;11.150;2022-08-20T02:04:12;18.67;;;11.03;;
68583;SDS011;55557;49.220;11.150;2022-08-20T02:06:42;16.63;;;11.93;;
68583;SDS011;55557;49.220;11.150;2022-08-20T02:09:09;17.27;;;11.43;;
68583;SDS011;55557;49.220;11.150;2022-08-20T02:11:36;18.83;;;12.13;;
68583;SDS011;55557;49.220;11.150;2022-08-20T02:14:03;18.63;;;11.73;;
68583;SDS011;55557;49.220;11.150;2022-08-20T02:16:32;18.07;;;11.87;;
68583;SDS011;55557;49.220;11.150;2022-08-20T02:19:03;20.50;;;11.70;;
68583;SDS011;55557;49.220;11.150;2022-08-20T02:21:33;15.07;;;11.33;;
68583;SDS011;55557;49.220;11.150;2022-08-20T02:23:59;17.27;;;10.97;;
68583;SDS011;55557;49.220;11.150;2022-08-20T02:26:26;17.73;;;11.40;;
68583;SDS011;55557;49.220;11.150;2022-08-20T02:28:53;17.23;;;11.57;;
68583;SDS011;55557;49.220;11.150;2022-08-20T02:31:20;18.27;;;12.50;;
68583;SDS011;55557;49.220;11.150;2022-08-20T02:33:46;18.47;;;11.63;;
68583;SDS011;55557;49.220;11.150;2022-08-20T02:36:14;16.90;;;11.87;;
68583;SDS011;55557;49.220;11.150;2022-08-20T02:38:41;21.30;;;11.67;;
68583;SDS011;55557;49.220;11.150;2022-08-20T02:41:13;19.03;;;11.40;;
68583;SDS011;55557;49.220;11.150;2022-08-20T02:43:39;16.63;;;11.37;;
68583;SDS011;55557;49.220;11.150;2022-08-20T02:46:06;15.37;;;10.77;;
68583;SDS011;55557;49.220;11.150;2022-08-20T02:48:32;15.30;;;11.50;;
68583;SDS011;55557;49.220;11.150;2022-08-20T02:51:00;15.43;;;11.77;;
68583;SDS011;55557;49.220;11.150;2022-08-20T02:53:27;14.63;;;11.63;;
68583;SDS011;55557;49.220;11.150;2022-08-20T02:55:53;15.77;;;11.37;;
68583;SDS011;55557;49.220;11.150;2022-08-20T02:58:19;20.13;;;11.97;;
68583;SDS011;55557;49.220;11.150;2022-08-20T03:00:45;14.67;;;10.80;;
68583;SDS011;55557;49.220;11.150;2022-08-20T03:03:12;16.07;;;12.17;;
68583;SDS011;55557;49.220;11.150;2022-08-20T03:05:39;14.67;;;10.30;;
68583;SDS011;55557;49.220;11.150;2022-08-20T03:08:06;16.63;;;11.13;;
68583;SDS011;55557;49.220;11.150;2022-08-20T03:10:33;15.83;;;11.20;;
68583;SDS011;55557;49.220;11.150;2022-08-20T03:13:00;17.23;;;10.33;;
68583;SDS011;55557;49.220;11.150;2022-08-20T03:15:27;15.13;;;10.80;;
68583;SDS011;55557;49.220;11.150;2022-08-20T03:17:53;18.43;;;11.50;;
68583;SDS011;55557;49.220;11.150;2022-08-20T03:20:19;15.60;;;10.40;;
68583;SDS011;55557;49.220;11.150;2022-08-20T03:22:46;13.03;;;10.37;;
68583;SDS011;55557;49.220;11.150;2022-08-20T03:25:13;16.07;;;11.23;;
68583;SDS011;55557;49.220;11.150;2022-08-20T03:27:39;14.07;;;10.60;;
68583;SDS011;55557;49.220;11.150;2022-08-20T03:30:07;17.20;;;10.50;;
68583;SDS011;55557;49.220;11.150;2022-08-20T03:32:33;15.17;;;10.43;;
68583;SDS011;55557;49.220;11.150;2022-08-20T03:34:59;15.43;;;10.90;;
68583;SDS011;55557;49.220;11.150;2022-08-20T03:37:31;15.73;;;11.70;;
68583;SDS011;55557;49.220;11.150;2022-08-20T03:39:58;17.20;;;10.77;;
68583;SDS011;55557;49.220;11.150;2022-08-20T03:42:24;14.40;;;10.57;;
68583;SDS011;55557;49.220;11.150;2022-08-20T03:44:50;15.30;;;10.17;;
68583;SDS011;55557;49.220;11.150;2022-08-20T03:47:17;14.80;;;11.67;;
68583;SDS011;55557;49.220;11.150;2022-08-20T03:49:43;19.50;;;11.53;;
68583;SDS011;55557;49.220;11.150;2022-08-20T03:52:09;15.17;;;11.13;;
68583;SDS011;55557;49.220;11.150;2022-08-20T03:54:35;15.47;;;10.53;;
68583;SDS011;55557;49.220;11.150;2022-08-20T03:57:01;15.20;;;10.60;;
68583;SDS011;55557;49.220;11.150;2022-08-20T03:59:28;14.07;;;10.43;;
68583;SDS011;55557;49.220;11.150;2022-08-20T04:01:58;17.23;;;10.83;;
68583;SDS011;55557;49.220;11.150;2022-08-20T04:04:25;15.63;;;10.73;;
68583;SDS011;55557;49.220;11.150;2022-08-20T04:06:51;15.57;;;10.10;;
68583;SDS011;55557;49.220;11.150;2022-08-20T04:09:17;13.37;;;10.50;;
68583;SDS011;55557;49.220;11.150;2022-08-20T04:11:43;13.40;;;10.07;;
68583;SDS011;55557;49.220;11.150;2022-08-20T04:14:10;12.77;;;9.17;;
68583;SDS011;55557;49.220;11.150;2022-08-20T04:16:36;13.30;;;10.03;;
68583;SDS011;55557;49.220;11.150;2022-08-20T04:19:03;18.03;;;9.90;;
68583;SDS011;55557;49.220;11.150;2022-08-20T04:21:30;17.03;;;10.20;;
68583;SDS011;55557;49.220;11.150;2022-08-20T04:23:56;15.50;;;10.77;;
68583;SDS011;55557;49.220;11.150;2022-08-20T04:26:22;14.80;;;10.53;;
68583;SDS011;55557;49.220;11.150;2022-08-20T04:28:49;14.83;;;10.77;;
68583;SDS011;55557;49.220;11.150;2022-08-20T04:31:17;14.67;;;11.17;;
68583;SDS011;55557;49.220;11.150;2022-08-20T04:33:43;15.10;;;10.63;;
68583;SDS011;55557;49.220;11.150;2022-08-20T04:36:09;16.03;;;10.87;;
68583;SDS011;55557;49.220;11.150;2022-08-20T04:38:35;15.27;;;10.23;;
68583;SDS011;55557;49.220;11.150;2022-08-20T04:41:01;18.67;;;9.67;;
68583;SDS011;55557;49.220;11.150;2022-08-20T04:43:29;15.90;;;11.03;;
68583;SDS011;55557;49.220;11.150;2022-08-20T04:45:58;15.87;;;10.60;;
68583;SDS011;55557;49.220;11.150;2022-08-20T04:48:25;17.17;;;10.97;;
68583;SDS011;55557;49.220;11.150;2022-08-20T04:50:53;15.80;;;11.10;;
68583;SDS011;55557;49.220;11.150;2022-08-20T04:53:20;15.73;;;11.23;;
68583;SDS011;55557;49.220;11.150;2022-08-20T04:55:47;17.73;;;12.07;;
68583;SDS011;55557;49.220;11.150;2022-08-20T04:58:18;18.63;;;12.80;;
68583;SDS011;55557;49.220;11.150;2022-08-20T05:00:48;24.43;;;12.87;;
68583;SDS011;55557;49.220;11.150;2022-08-20T05:03:15;16.57;;;12.33;;
68583;SDS011;55557;49.220;11.150;2022-08-20T05:05:41;24.37;;;13.90;;
68583;SDS011;55557;49.220;11.150;2022-08-20T05:08:07;20.70;;;11.80;;
68583;SDS011;55557;49.220;11.150;2022-08-20T05:10:33;20.23;;;12.73;;
68583;SDS011;55557;49.220;11.150;2022-08-20T05:13:02;18.20;;;12.23;;
68583;SDS011;55557;49.220;11.150;2022-08-20T05:15:28;19.50;;;13.30;;
68583;SDS011;55557;49.220;11.150;2022-08-20T05:17:55;19.13;;;13.00;;
68583;SDS011;55557;49.220;11.150;2022-08-20T05:20:24;22.43;;;14.23;;
68583;SDS011;55557;49.220;11.150;2022-08-20T05:22:55;23.23;;;16.00;;
68583;SDS011;55557;49.220;11.150;2022-08-20T05:25:21;23.37;;;14.87;;
68583;SDS011;55557;49.220;11.150;2022-08-20T05:27:47;22.30;;;14.20;;
68583;SDS011;55557;49.220;11.150;2022-08-20T05:30:13;27.80;;;15.50;;
68583;SDS011;55557;49.220;11.150;2022-08-20T05:32:39;24.80;;;15.93;;
68583;SDS011;55557;49.220;11.150;2022-08-20T05:35:06;27.87;;;16.03;;
68583;SDS011;55557;49.220;11.150;2022-08-20T05:37:37;24.13;;;16.40;;
68583;SDS011;55557;49.220;11.150;2022-08-20T05:40:09;25.47;;;17.37;;
68583;SDS011;55557;49.220;11.150;2022-08-20T05:42:36;23.87;;;16.70;;
68583;SDS011;55557;49.220;11.150;2022-08-20T05:45:03;26.40;;;18.03;;
68583;SDS011;55557;49.220;11.150;2022-08-20T05:47:29;25.07;;;16.93;;
68583;SDS011;55557;49.220;11.150;2022-08-20T05:49:55;28.23;;;18.20;;
68583;SDS011;55557;49.220;11.150;2022-08-20T05:52:21;30.93;;;17.93;;
68583;SDS011;55557;49.220;11.150;2022-08-20T05:54:47;33.20;;;19.77;;
68583;SDS011;55557;49.220;11.150;2022-08-20T05:57:19;28.77;;;18.70;;
68583;SDS011;55557;49.220;11.150;2022-08-20T05:59:46;35.03;;;21.27;;
68583;SDS011;55557;49.220;11.150;2022-08-20T06:02:12;35.93;;;22.07;;
68583;SDS011;55557;49.220;11.150;2022-08-20T06:04:57;38.37;;;21.67;;
68583;SDS011;55557;49.220;11.150;2022-08-20T06:10:27;33.33;;;22.33;;
68583;SDS011;55557;49.220;11.150;2022-08-20T06:12:53;33.00;;;22.33;;
68583;SDS011;55557;49.220;11.150;2022-08-20T06:15:19;38.77;;;23.47;;
68583;SDS011;55557;49.220;11.150;2022-08-20T06:17:45;37.80;;;24.10;;
68583;SDS011;55557;49.220;11.150;2022-08-20T06:20:11;35.40;;;24.20;;
68583;SDS011;55557;49.220;11.150;2022-08-20T06:22:37;40.43;;;24.80;;
68583;SDS011;55557;49.220;11.150;2022-08-20T06:25:04;42.77;;;25.97;;
68583;SDS011;55557;49.220;11.150;2022-08-20T06:27:30;39.07;;;25.93;;
68583;SDS011;55557;49.220;11.150;2022-08-20T06:29:56;36.77;;;24.27;;
68583;SDS011;55557;49.220;11.150;2022-08-20T06:32:23;40.27;;;26.67;;
68583;SDS011;55557;49.220;11.150;2022-08-20T06:34:50;39.57;;;25.77;;
68583;SDS011;55557;49.220;11.150;2022-08-20T06:37:18;39.10;;;25.53;;
68583;SDS011;55557;49.220;11.150;2022-08-20T06:39:44;39.80;;;26.03;;
68583;SDS011;55557;49.220;11.150;2022-08-20T06:42:10;37.33;;;26.83;;
68583;SDS011;55557;49.220;11.150;2022-08-20T06:44:37;36.80;;;24.67;;
68583;SDS011;55557;49.220;11.150;2022-08-20T06:47:03;41.00;;;25.87;;
68583;SDS011;55557;49.220;11.150;2022-08-20T06:49:30;36.37;;;23.80;;
68583;SDS011;55557;49.220;11.150;2022-08-20T06:51:58;41.40;;;25.10;;
68583;SDS011;55557;49.220;11.150;2022-08-20T06:54:24;38.07;;;23.83;;
68583;SDS011;55557;49.220;11.150;2022-08-20T06:56:50;38.57;;;25.97;;
68583;SDS011;55557;49.220;11.150;2022-08-20T06:59:18;40.33;;;25.23;;
68583;SDS011;55557;49.220;11.150;2022-08-20T07:01:45;36.17;;;24.37;;
68583;SDS011;55557;49.220;11.150;2022-08-20T07:04:13;36.77;;;23.73;;
68583;SDS011;55557;49.220;11.150;2022-08-20T07:06:39;36.00;;;24.33;;
68583;SDS011;55557;49.220;11.150;2022-08-20T07:09:05;30.77;;;23.07;;
68583;SDS011;55557;49.220;11.150;2022-08-20T07:11:32;39.33;;;24.63;;
68583;SDS011;55557;49.220;11.150;2022-08-20T07:13:59;33.17;;;22.80;;
68583;SDS011;55557;49.220;11.150;2022-08-20T07:16:30;38.63;;;24.20;;
68583;SDS011;55557;49.220;11.150;2022-08-20T07:18:57;33.17;;;23.07;;
68583;SDS011;55557;49.220;11.150;2022-08-20T07:21:23;34.53;;;24.50;;
68583;SDS011;55557;49.220;11.150;2022-08-20T07:23:49;35.13;;;23.37;;
68583;SDS011;55557;49.220;11.150;2022-08-20T07:26:17;32.63;;;23.60;;
68583;SDS011;55557;49.220;11.150;2022-08-20T07:28:43;35.43;;;22.27;;
68583;SDS011;55557;49.220;11.150;2022-08-20T07:31:09;34.77;;;24.23;;
68583;SDS011;55557;49.220;11.150;2022-08-20T07:33:53;35.47;;;23.37;;
68583;SDS011;55557;49.220;11.150;2022-08-20T07:36:19;32.50;;;22.93;;
68583;SDS011;55557;49.220;11.150;2022-08-20T07:38:45;39.10;;;23.03;;
68583;SDS011;55557;49.220;11.150;2022-08-20T07:41:14;36.73;;;24.77;;
68583;SDS011;55557;49.220;11.150;2022-08-20T07:43:41;33.20;;;22.43;;
68583;SDS011;55557;49.220;11.150;2022-08-20T07:46:09;33.33;;;23.10;;
68583;SDS011;55557;49.220;11.150;2022-08-20T07:48:36;30.10;;;21.57;;
68583;SDS011;55557;49.220;11.150;2022-08-20T07:51:04;29.93;;;21.27;;
68583;SDS011;55557;49.220;11.150;2022-08-20T07:53:31;33.70;;;22.57;;
68583;SDS011;55557;49.220;11.150;2022-08-20T07:55:58;30.20;;;20.80;;
68583;SDS011;55557;49.220;11.150;2022-08-20T07:58:24;33.43;;;21.70;;
68583;SDS011;55557;49.220;11.150;2022-08-20T08:00:51;27.83;;;20.20;;
68583;SDS011;55557;49.220;11.150;2022-08-20T08:03:17;29.07;;;19.17;;
68583;SDS011;55557;49.220;11.150;2022-08-20T08:05:44;28.43;;;19.90;;
68583;SDS011;55557;49.220;11.150;2022-08-20T08:08:12;31.00;;;20.33;;
68583;SDS011;55557;49.220;11.150;2022-08-20T08:10:39;28.00;;;20.87;;
68583;SDS011;55557;49.220;11.150;2022-08-20T08:13:06;26.10;;;20.27;;
68583;SDS011;55557;49.220;11.150;2022-08-20T08:15:34;30.07;;;19.43;;
68583;SDS011;55557;49.220;11.150;2022-08-20T08:18:08;30.23;;;20.43;;
68583;SDS011;55557;49.220;11.150;2022-08-20T08:20:37;31.97;;;20.87;;
68583;SDS011;55557;49.220;11.150;2022-08-20T08:23:05;26.07;;;19.37;;
68583;SDS011;55557;49.220;11.150;2022-08-20T08:25:31;30.60;;;19.67;;
68583;SDS011;55557;49.220;11.150;2022-08-20T08:27:58;26.90;;;19.27;;
68583;SDS011;55557;49.220;11.150;2022-08-20T08:30:25;29.60;;;19.87;;
68583;SDS011;55557;49.220;11.150;2022-08-20T08:32:52;26.17;;;18.30;;
68583;SDS011;55557;49.220;11.150;2022-08-20T08:35:38;24.90;;;19.70;;
68583;SDS011;55557;49.220;11.150;2022-08-20T08:38:04;26.83;;;18.63;;
68583;SDS011;55557;49.220;11.150;2022-08-20T08:40:31;25.43;;;18.30;;
68583;SDS011;55557;49.220;11.150;2022-08-20T08:42:58;26.10;;;17.67;;
68583;SDS011;55557;49.220;11.150;2022-08-20T08:45:39;25.97;;;18.63;;
68583;SDS011;55557;49.220;11.150;2022-08-20T08:48:08;21.67;;;17.47;;
68583;SDS011;55557;49.220;11.150;2022-08-20T08:50:35;25.50;;;17.53;;
68583;SDS011;55557;49.220;11.150;2022-08-20T08:53:02;20.57;;;16.10;;
68583;SDS011;55557;49.220;11.150;2022-08-20T08:55:30;25.63;;;17.50;;
68583;SDS011;55557;49.220;11.150;2022-08-20T08:57:56;22.03;;;16.80;;
68583;SDS011;55557;49.220;11.150;2022-08-20T09:00:24;24.10;;;17.83;;
68583;SDS011;55557;49.220;11.150;2022-08-20T09:03:16;24.67;;;17.40;;
68583;SDS011;55557;49.220;11.150;2022-08-20T09:05:42;21.77;;;16.73;;
68583;SDS011;55557;49.220;11.150;2022-08-20T09:08:09;21.10;;;16.33;;
68583;SDS011;55557;49.220;11.150;2022-08-20T09:10:36;26.03;;;16.97;;
68583;SDS011;55557;49.220;11.150;2022-08-20T09:13:03;24.43;;;16.90;;
68583;SDS011;55557;49.220;11.150;2022-08-20T09:15:29;22.47;;;15.63;;
68583;SDS011;55557;49.220;11.150;2022-08-20T09:17:55;25.07;;;17.03;;
68583;SDS011;55557;49.220;11.150;2022-08-20T09:20:21;23.37;;;16.40;;
68583;SDS011;55557;49.220;11.150;2022-08-20T09:22:47;21.90;;;16.97;;
68583;SDS011;55557;49.220;11.150;2022-08-20T09:25:14;25.07;;;15.50;;
68583;SDS011;55557;49.220;11.150;2022-08-20T09:27:40;25.37;;;16.77;;
68583;SDS011;55557;49.220;11.150;2022-08-20T09:30:06;30.43;;;15.80;;
68583;SDS011;55557;49.220;11.150;2022-08-20T09:32:33;23.00;;;16.33;;
68583;SDS011;55557;49.220;11.150;2022-08-20T09:34:59;24.47;;;15.90;;
68583;SDS011;55557;49.220;11.150;2022-08-20T09:37:27;22.60;;;15.23;;
68583;SDS011;55557;49.220;11.150;2022-08-20T09:39:53;22.93;;;13.43;;
68583;SDS011;55557;49.220;11.150;2022-08-20T09:42:20;16.93;;;13.87;;
68583;SDS011;55557;49.220;11.150;2022-08-20T09:44:47;19.20;;;14.73;;
68583;SDS011;55557;49.220;11.150;2022-08-20T09:47:14;18.30;;;14.23;;
68583;SDS011;55557;49.220;11.150;2022-08-20T09:49:41;17.50;;;12.53;;
68583;SDS011;55557;49.220;11.150;2022-08-20T09:52:08;16.70;;;14.33;;
68583;SDS011;55557;49.220;11.150;2022-08-20T09:54:35;18.37;;;13.93;;
68583;SDS011;55557;49.220;11.150;2022-08-20T09:57:03;23.33;;;13.00;;
68583;SDS011;55557;49.220;11.150;2022-08-20T09:59:29;18.30;;;13.67;;
68583;SDS011;55557;49.220;11.150;2022-08-20T10:01:57;16.17;;;12.37;;
68583;SDS011;55557;49.220;11.150;2022-08-20T10:04:23;16.37;;;12.70;;
68583;SDS011;55557;49.220;11.150;2022-08-20T10:06:49;20.60;;;13.20;;
68583;SDS011;55557;49.220;11.150;2022-08-20T10:09:15;23.20;;;13.03;;
68583;SDS011;55557;49.220;11.150;2022-08-20T10:11:41;15.53;;;12.50;;
68583;SDS011;55557;49.220;11.150;2022-08-20T10:14:07;22.43;;;13.17;;
68583;SDS011;55557;49.220;11.150;2022-08-20T10:16:34;16.00;;;12.27;;
68583;SDS011;55557;49.220;11.150;2022-08-20T10:19:00;16.80;;;12.53;;
68583;SDS011;55557;49.220;11.150;2022-08-20T10:21:26;16.47;;;12.03;;
68583;SDS011;55557;49.220;11.150;2022-08-20T10:23:52;18.23;;;12.73;;
68583;SDS011;55557;49.220;11.150;2022-08-20T10:26:18;16.87;;;11.83;;
68583;SDS011;55557;49.220;11.150;2022-08-20T10:28:44;15.40;;;11.80;;
68583;SDS011;55557;49.220;11.150;2022-08-20T10:31:11;16.37;;;11.93;;
68583;SDS011;55557;49.220;11.150;2022-08-20T10:33:37;16.27;;;11.77;;
68583;SDS011;55557;49.220;11.150;2022-08-20T10:36:06;17.00;;;12.30;;
68583;SDS011;55557;49.220;11.150;2022-08-20T10:38:33;17.40;;;11.17;;
68583;SDS011;55557;49.220;11.150;2022-08-20T10:40:59;14.90;;;10.50;;
68583;SDS011;55557;49.220;11.150;2022-08-20T10:43:25;17.93;;;10.70;;
68583;SDS011;55557;49.220;11.150;2022-08-20T10:45:52;15.37;;;11.47;;
68583;SDS011;55557;49.220;11.150;2022-08-20T10:48:18;19.07;;;11.80;;
68583;SDS011;55557;49.220;11.150;2022-08-20T10:50:44;13.47;;;11.03;;
68583;SDS011;55557;49.220;11.150;2022-08-20T10:53:10;19.03;;;10.33;;
68583;SDS011;55557;49.220;11.150;2022-08-20T10:55:37;18.87;;;12.60;;
68583;SDS011;55557;49.220;11.150;2022-08-20T10:58:06;15.70;;;10.60;;
68583;SDS011;55557;49.220;11.150;2022-08-20T11:00:33;12.43;;;10.13;;
68583;SDS011;55557;49.220;11.150;2022-08-20T11:02:59;14.53;;;11.53;;
68583;SDS011;55557;49.220;11.150;2022-08-20T11:05:25;15.40;;;10.33;;
68583;SDS011;55557;49.220;11.150;2022-08-20T11:07:52;16.00;;;11.80;;
68583;SDS011;55557;49.220;11.150;2022-08-20T11:10:19;13.37;;;10.33;;
68583;SDS011;55557;49.220;11.150;2022-08-20T11:12:46;14.30;;;11.13;;
68583;SDS011;55557;49.220;11.150;2022-08-20T11:15:12;13.37;;;10.43;;
68583;SDS011;55557;49.220;11.150;2022-08-20T11:17:40;16.57;;;11.07;;
68583;SDS011;55557;49.220;11.150;2022-08-20T11:20:07;16.53;;;12.27;;
68583;SDS011;55557;49.220;11.150;2022-08-20T11:22:34;13.67;;;10.07;;
68583;SDS011;55557;49.220;11.150;2022-08-20T11:25:00;18.80;;;10.10;;
68583;SDS011;55557;49.220;11.150;2022-08-20T11:27:32;15.73;;;10.90;;
68583;SDS011;55557;49.220;11.150;2022-08-20T11:29:58;12.57;;;10.30;;
68583;SDS011;55557;49.220;11.150;2022-08-20T11:32:24;12.63;;;9.33;;
68583;SDS011;55557;49.220;11.150;2022-08-20T11:34:51;13.37;;;10.53;;
68583;SDS011;55557;49.220;11.150;2022-08-20T11:37:18;18.30;;;11.30;;
68583;SDS011;55557;49.220;11.150;2022-08-20T11:39:45;15.87;;;11.67;;
68583;SDS011;55557;49.220;11.150;2022-08-20T11:42:11;14.60;;;10.33;;
68583;SDS011;55557;49.220;11.150;2022-08-20T11:44:37;15.57;;;10.40;;
68583;SDS011;55557;49.220;11.150;2022-08-20T11:47:03;11.93;;;8.57;;
68583;SDS011;55557;49.220;11.150;2022-08-20T11:49:30;12.13;;;9.20;;
68583;SDS011;55557;49.220;11.150;2022-08-20T11:51:56;17.43;;;9.83;;
68583;SDS011;55557;49.220;11.150;2022-08-20T11:54:23;12.13;;;8.47;;
68583;SDS011;55557;49.220;11.150;2022-08-20T11:56:49;12.83;;;9.27;;
68583;SDS011;55557;49.220;11.150;2022-08-20T11:59:15;11.90;;;9.30;;
68583;SDS011;55557;49.220;11.150;2022-08-20T12:01:41;11.90;;;9.50;;
68583;SDS011;55557;49.220;11.150;2022-08-20T12:04:07;16.13;;;9.30;;
68583;SDS011;55557;49.220;11.150;2022-08-20T12:06:33;12.73;;;9.43;;
68583;SDS011;55557;49.220;11.150;2022-08-20T12:08:59;14.90;;;10.17;;
68583;SDS011;55557;49.220;11.150;2022-08-20T12:11:26;15.10;;;10.77;;
68583;SDS011;55557;49.220;11.150;2022-08-20T12:13:52;15.60;;;10.67;;
68583;SDS011;55557;49.220;11.150;2022-08-20T12:16:18;17.40;;;11.43;;
68583;SDS011;55557;49.220;11.150;2022-08-20T12:18:44;14.43;;;11.00;;
68583;SDS011;55557;49.220;11.150;2022-08-20T12:21:10;13.60;;;8.97;;
68583;SDS011;55557;49.220;11.150;2022-08-20T12:23:37;13.10;;;9.83;;
68583;SDS011;55557;49.220;11.150;2022-08-20T12:26:03;19.50;;;10.97;;
68583;SDS011;55557;49.220;11.150;2022-08-20T12:28:29;17.60;;;9.93;;
68583;SDS011;55557;49.220;11.150;2022-08-20T12:30:55;16.83;;;10.17;;
68583;SDS011;55557;49.220;11.150;2022-08-20T12:33:21;13.73;;;9.60;;
68583;SDS011;55557;49.220;11.150;2022-08-20T12:35:47;24.37;;;9.63;;
68583;SDS011;55557;49.220;11.150;2022-08-20T12:38:13;12.40;;;8.40;;
68583;SDS011;55557;49.220;11.150;2022-08-20T12:40:39;13.97;;;9.23;;
68583;SDS011;55557;49.220;11.150;2022-08-20T12:43:06;13.10;;;8.77;;
68583;SDS011;55557;49.220;11.150;2022-08-20T12:45:32;13.83;;;8.97;;
68583;SDS011;55557;49.220;11.150;2022-08-20T12:48:06;11.33;;;8.27;;
68583;SDS011;55557;49.220;11.150;2022-08-20T12:50:33;11.50;;;9.13;;
68583;SDS011;55557;49.220;11.150;2022-08-20T12:53:00;12.20;;;8.23;;
68583;SDS011;55557;49.220;11.150;2022-08-20T12:55:26;13.50;;;8.83;;
68583;SDS011;55557;49.220;11.150;2022-08-20T12:57:54;15.13;;;8.40;;
68583;SDS011;55557;49.220;11.150;2022-08-20T13:00:25;10.40;;;7.60;;
68583;SDS011;55557;49.220;11.150;2022-08-20T13:02:52;15.23;;;9.00;;
68583;SDS011;55557;49.220;11.150;2022-08-20T13:05:25;9.63;;;8.33;;
68583;SDS011;55557;49.220;11.150;2022-08-20T13:07:51;13.27;;;8.53;;
68583;SDS011;55557;49.220;11.150;2022-08-20T13:10:22;14.73;;;8.10;;
68583;SDS011;55557;49.220;11.150;2022-08-20T13:12:49;12.67;;;8.97;;
68583;SDS011;55557;49.220;11.150;2022-08-20T13:15:16;15.27;;;9.00;;
68583;SDS011;55557;49.220;11.150;2022-08-20T13:17:42;12.53;;;8.63;;
68583;SDS011;55557;49.220;11.150;2022-08-20T13:20:09;13.37;;;8.87;;
68583;SDS011;55557;49.220;11.150;2022-08-20T13:22:36;30.40;;;9.77;;
68583;SDS011;55557;49.220;11.150;2022-08-20T13:25:02;15.73;;;9.20;;
68583;SDS011;55557;49.220;11.150;2022-08-20T13:27:28;11.80;;;8.83;;
68583;SDS011;55557;49.220;11.150;2022-08-20T13:29:54;12.90;;;9.03;;
68583;SDS011;55557;49.220;11.150;2022-08-20T13:32:21;15.23;;;9.43;;
68583;SDS011;55557;49.220;11.150;2022-08-20T13:34:48;12.83;;;8.43;;
68583;SDS011;55557;49.220;11.150;2022-08-20T13:37:15;11.10;;;8.23;;
68583;SDS011;55557;49.220;11.150;2022-08-20T13:39:41;13.40;;;9.07;;
68583;SDS011;55557;49.220;11.150;2022-08-20T13:42:08;13.00;;;9.60;;
68583;SDS011;55557;49.220;11.150;2022-08-20T13:44:34;10.50;;;8.10;;
68583;SDS011;55557;49.220;11.150;2022-08-20T13:47:11;12.70;;;8.80;;
68583;SDS011;55557;49.220;11.150;2022-08-20T13:49:37;10.87;;;7.43;;
68583;SDS011;55557;49.220;11.150;2022-08-20T13:52:03;11.70;;;6.90;;
68583;SDS011;55557;49.220;11.150;2022-08-20T13:54:29;6.97;;;5.87;;
68583;SDS011;55557;49.220;11.150;2022-08-20T13:57:03;6.87;;;5.10;;
68583;SDS011;55557;49.220;11.150;2022-08-20T13:59:29;9.03;;;6.10;;
68583;SDS011;55557;49.220;11.150;2022-08-20T14:01:55;9.47;;;5.63;;
68583;SDS011;55557;49.220;11.150;2022-08-20T14:04:21;7.83;;;6.07;;
68583;SDS011;55557;49.220;11.150;2022-08-20T14:06:47;9.17;;;6.17;;
68583;SDS011;55557;49.220;11.150;2022-08-20T14:09:13;7.37;;;5.90;;
68583;SDS011;55557;49.220;11.150;2022-08-20T14:11:39;5.83;;;5.07;;
68583;SDS011;55557;49.220;11.150;2022-08-20T14:14:05;7.50;;;5.83;;
68583;SDS011;55557;49.220;11.150;2022-08-20T14:16:31;7.07;;;5.63;;
68583;SDS011;55557;49.220;11.150;2022-08-20T14:18:57;8.03;;;6.47;;